createdAt,value
2016-04-26T00:02:34.786Z,5
2016-04-26T00:05:44.393Z,5
2016-04-26T00:08:56.275Z,5
2016-04-26T00:12:12.595Z,5
2016-04-26T00:15:19.682Z,5
2016-04-26T00:18:20.550Z,5
2016-04-26T00:21:32.419Z,5
2016-04-26T00:24:41.584Z,5
2016-04-26T00:27:53.233Z,5
2016-04-26T00:31:02.678Z,5
2016-04-26T00:34:20.390Z,5
2016-04-26T00:37:21.288Z,5
2016-04-26T00:40:33.143Z,5
2016-04-26T00:43:44.869Z,5
2016-04-26T00:46:56.658Z,5
2016-04-26T00:50:14.260Z,5
2016-04-26T00:53:21.066Z,5
2016-04-26T00:56:21.870Z,5
2016-04-26T00:59:33.506Z,5
2016-04-26T01:02:45.498Z,5
2016-04-26T01:05:57.507Z,5
2016-04-26T01:09:15.577Z,5
2016-04-26T01:12:16.445Z,5
2016-04-26T01:15:28.046Z,5
2016-04-26T01:18:39.979Z,5
2016-04-26T01:21:51.752Z,5
2016-04-26T01:25:00.120Z,5
2016-04-26T01:28:17.972Z,5
2016-04-26T01:31:18.902Z,5
2016-04-26T01:34:30.769Z,5
2016-04-26T01:37:42.530Z,5
2016-04-26T01:40:54.429Z,5
2016-04-26T01:44:06.437Z,5
2016-04-26T01:47:18.430Z,5
2016-04-26T01:50:30.359Z,5
2016-04-26T01:53:42.480Z,5
2016-04-26T01:56:54.488Z,5
2016-04-26T02:00:04.480Z,5
2016-04-26T02:03:22.410Z,5
2016-04-26T02:06:23.230Z,5
2016-04-26T02:09:35.082Z,5
2016-04-26T02:12:46.749Z,5
2016-04-26T02:15:58.117Z,5
2016-04-26T02:19:15.656Z,5
2016-04-26T02:22:22.508Z,5
2016-04-26T02:25:23.258Z,5
2016-04-26T02:28:35.360Z,5
2016-04-26T02:31:48.589Z,5
2016-04-26T02:34:59.065Z,5
2016-04-26T02:38:16.651Z,5
2016-04-26T02:41:17.582Z,5
2016-04-26T02:44:29.559Z,5
2016-04-26T02:47:41.664Z,5
2016-04-26T02:50:53.514Z,5
2016-04-26T02:54:05.241Z,5
2016-04-26T02:57:16.703Z,5
2016-04-26T03:00:28.680Z,5
2016-04-26T03:03:40.734Z,5
2016-04-26T03:06:52.745Z,5
2016-04-26T03:10:04.644Z,5
2016-04-26T03:13:22.449Z,5
2016-04-26T03:16:23.363Z,5
2016-04-26T03:19:35.295Z,5
2016-04-26T03:22:47.242Z,6
2016-04-26T03:25:59.110Z,7
2016-04-26T03:29:16.853Z,7
2016-04-26T03:32:19.361Z,8
2016-04-26T03:35:26.978Z,9
2016-04-26T03:38:38.877Z,10
2016-04-26T03:41:50.794Z,15
2016-04-26T03:45:02.942Z,19
2016-04-26T03:48:20.731Z,21
2016-04-26T03:51:21.677Z,22
2016-04-26T03:54:33.732Z,27
2016-04-26T03:57:45.914Z,44
2016-04-26T04:00:57.860Z,58
2016-04-26T04:04:15.883Z,73
2016-04-26T04:07:22.830Z,81
2016-04-26T04:10:23.660Z,56
2016-04-26T04:13:35.465Z,88
2016-04-26T04:16:48.179Z,83
2016-04-26T04:19:59.093Z,95
2016-04-26T04:23:17.148Z,116
2016-04-26T04:26:18.141Z,121
2016-04-26T04:29:30.086Z,117
2016-04-26T04:32:39.345Z,134
2016-04-26T04:35:51.121Z,166
2016-04-26T04:38:59.832Z,377
2016-04-26T04:42:19.043Z,364
2016-04-26T04:45:18.926Z,305
2016-04-26T04:48:28.293Z,365
2016-04-26T04:51:40.379Z,411
2016-04-26T04:54:50.609Z,320
2016-04-26T04:58:02.305Z,520
2016-04-26T05:01:17.188Z,551
2016-04-26T05:04:18.196Z,512
2016-04-26T05:07:30.002Z,685
2016-04-26T05:10:41.931Z,1042
2016-04-26T05:13:50.676Z,1017
2016-04-26T05:17:02.778Z,888
2016-04-26T05:20:20.974Z,936
2016-04-26T05:23:21.997Z,943
2016-04-26T05:26:33.958Z,989
2016-04-26T05:29:46.139Z,1155
2016-04-26T05:32:56.196Z,1241
2016-04-26T05:36:13.454Z,1219
2016-04-26T05:39:20.680Z,1067
2016-04-26T05:42:21.704Z,1366
2016-04-26T05:45:33.853Z,1926
2016-04-26T05:48:44.486Z,1384
2016-04-26T05:51:56.575Z,1215
2016-04-26T05:55:14.942Z,1331
2016-04-26T05:58:21.990Z,1180
2016-04-26T06:01:23.098Z,1608
2016-04-26T06:04:34.344Z,1766
2016-04-26T06:07:46.494Z,1971
2016-04-26T06:10:58.519Z,1785
2016-04-26T06:14:16.512Z,1463
2016-04-26T06:17:17.536Z,2018
2016-04-26T06:20:29.668Z,1407
2016-04-26T06:23:39.383Z,1540
2016-04-26T06:26:51.612Z,1633
2016-04-26T06:30:03.809Z,1409
2016-04-26T06:33:22.035Z,1407
2016-04-26T06:36:23.106Z,1495
2016-04-26T06:39:34.972Z,1803
2016-04-26T06:42:46.886Z,1897
2016-04-26T06:45:59.039Z,1790
2016-04-26T06:49:17.218Z,2448
2016-04-26T06:52:18.382Z,1913
2016-04-26T06:55:30.501Z,2297
2016-04-26T06:58:42.711Z,1804
2016-04-26T07:01:54.925Z,2628
2016-04-26T07:05:06.809Z,2026
2016-04-26T07:08:18.817Z,1805
2016-04-26T07:11:30.965Z,3629
2016-04-26T07:14:43.098Z,3227
2016-04-26T07:17:55.438Z,1718
2016-04-26T07:21:13.555Z,1869
2016-04-26T07:24:20.614Z,1592
2016-04-26T07:27:21.591Z,1327
2016-04-26T07:30:33.678Z,1535
2016-04-26T07:33:45.811Z,2159
2016-04-26T07:36:57.836Z,2207
2016-04-26T07:40:15.892Z,2644
2016-04-26T07:43:22.900Z,1633
2016-04-26T07:46:23.860Z,1617
2016-04-26T07:49:35.729Z,1933
2016-04-26T07:52:47.908Z,1566
2016-04-26T07:56:00.090Z,1806
2016-04-26T07:59:18.349Z,2505
2016-04-26T08:02:19.419Z,2492
2016-04-26T08:05:31.475Z,2292
2016-04-26T08:08:41.530Z,2396
2016-04-26T08:11:53.119Z,3300
2016-04-26T08:15:05.345Z,4073
2016-04-26T08:18:23.400Z,5257
2016-04-26T08:21:24.252Z,4407
2016-04-26T08:24:36.213Z,4056
2016-04-26T08:27:48.237Z,3149
2016-04-26T08:30:59.799Z,2334
2016-04-26T08:34:18.151Z,2297
2016-04-26T08:37:19.339Z,2382
2016-04-26T08:40:29.031Z,3480
2016-04-26T08:43:40.946Z,4947
2016-04-26T08:46:53.014Z,5413
2016-04-26T08:50:05.064Z,5394
2016-04-26T08:53:23.246Z,5695
2016-04-26T08:56:24.287Z,4816
2016-04-26T08:59:36.360Z,3948
2016-04-26T09:02:48.179Z,5506
2016-04-26T09:06:00.301Z,5562
2016-04-26T09:09:18.573Z,5728
2016-04-26T09:12:19.739Z,6187
2016-04-26T09:15:31.949Z,9924
2016-04-26T09:18:44.395Z,13271
2016-04-26T09:21:57.031Z,1666
2016-04-26T09:25:15.680Z,384
2016-04-26T09:28:23.938Z,384
2016-04-26T09:31:26.242Z,12413
2016-04-26T09:34:39.298Z,11045
2016-04-26T09:37:52.024Z,13624
2016-04-26T09:41:04.754Z,384
2016-04-26T09:44:20.606Z,11965
2016-04-26T09:47:22.472Z,8027
2016-04-26T09:50:34.997Z,6586
2016-04-26T09:53:46.958Z,6838
2016-04-26T09:56:59.327Z,2876
2016-04-26T10:00:15.321Z,1828
2016-04-26T10:03:22.594Z,3576
2016-04-26T10:06:24.009Z,7727
2016-04-26T10:09:36.563Z,8147
2016-04-26T10:12:49.103Z,5142
2016-04-26T10:16:01.753Z,4959
2016-04-26T10:19:20.012Z,4996
2016-04-26T10:22:21.457Z,5241
2016-04-26T10:25:33.824Z,5614
2016-04-26T10:28:46.114Z,6747
2016-04-26T10:31:58.545Z,5491
2016-04-26T10:35:17.133Z,5017
2016-04-26T10:38:18.453Z,9989
2016-04-26T10:41:31.165Z,11371
2016-04-26T10:44:43.376Z,10600
2016-04-26T10:47:55.947Z,8766
2016-04-26T10:51:14.786Z,7271
2016-04-26T10:54:22.091Z,8727
2016-04-26T10:57:24.755Z,9990
2016-04-26T11:00:36.544Z,10152
2016-04-26T11:03:49.069Z,7241
2016-04-26T11:07:03.702Z,5679
2016-04-26T11:10:19.915Z,4281
2016-04-26T11:13:21.471Z,3179
2016-04-26T11:16:34.087Z,3115
2016-04-26T11:19:46.486Z,4917
2016-04-26T11:22:57.791Z,5990
2016-04-26T11:26:16.630Z,7787
2016-04-26T11:29:18.404Z,7955
2016-04-26T11:32:30.958Z,7404
2016-04-26T11:35:43.624Z,7805
2016-04-26T11:38:56.319Z,9530
2016-04-26T11:42:15.079Z,9158
2016-04-26T11:45:23.041Z,8132
2016-04-26T11:48:24.955Z,8059
2016-04-26T11:51:34.197Z,8157
2016-04-26T11:54:46.643Z,7818
2016-04-26T11:57:59.400Z,7691
2016-04-26T12:01:18.099Z,7914
2016-04-26T12:04:19.888Z,8025
2016-04-26T12:07:32.710Z,8745
2016-04-26T12:10:45.513Z,7279
2016-04-26T12:13:58.256Z,5567
2016-04-26T12:17:16.737Z,6108
2016-04-26T12:20:18.400Z,6453
2016-04-26T12:23:31.127Z,5791
2016-04-26T12:26:43.572Z,4732
2016-04-26T12:29:56.284Z,5241
2016-04-26T12:33:06.339Z,5654
2016-04-26T12:36:19.163Z,4318
2016-04-26T12:39:31.639Z,3494
2016-04-26T12:42:44.241Z,3408
2016-04-26T12:45:56.701Z,3805
2016-04-26T12:49:15.540Z,3573
2016-04-26T12:52:23.331Z,4371
2016-04-26T12:55:24.979Z,3837
2016-04-26T12:58:37.737Z,4314
2016-04-26T13:01:50.339Z,3969
2016-04-26T13:05:02.941Z,3568
2016-04-26T13:08:21.654Z,3631
2016-04-26T13:11:23.381Z,4860
2016-04-26T13:14:36.248Z,4581
2016-04-26T13:17:48.652Z,4206
2016-04-26T13:21:01.332Z,5023
2016-04-26T13:24:17.656Z,4744
2016-04-26T13:27:19.320Z,4263
2016-04-26T13:30:31.312Z,4863
2016-04-26T13:33:44.164Z,5430
2016-04-26T13:36:56.579Z,3628
2016-04-26T13:40:15.306Z,3035
2016-04-26T13:43:23.144Z,4243
2016-04-26T13:46:24.855Z,4567
2016-04-26T13:49:37.551Z,4366
2016-04-26T13:52:50.076Z,5359
2016-04-26T13:56:02.755Z,3936
2016-04-26T13:59:21.387Z,4031
2016-04-26T14:02:22.928Z,4461
2016-04-26T14:05:35.625Z,3645
2016-04-26T14:08:48.368Z,3843
2016-04-26T14:12:00.422Z,4132
2016-04-26T14:15:19.134Z,4208
2016-04-26T14:18:20.782Z,3642
2016-04-26T14:21:31.074Z,4081
2016-04-26T14:24:43.416Z,3356
2016-04-26T14:27:56.112Z,3471
2016-04-26T14:31:14.885Z,2995
2016-04-26T14:34:22.627Z,3101
2016-04-26T14:37:24.277Z,3443
2016-04-26T14:40:36.756Z,3570
2016-04-26T14:43:49.216Z,4671
2016-04-26T14:47:00.646Z,4250
2016-04-26T14:50:19.796Z,3420
2016-04-26T14:53:21.069Z,3009
2016-04-26T14:56:33.705Z,3844
2016-04-26T14:59:46.214Z,3925
2016-04-26T15:02:59.033Z,2516
2016-04-26T15:06:17.495Z,2227
2016-04-26T15:09:19.425Z,2361
2016-04-26T15:12:31.624Z,2283
2016-04-26T15:15:44.365Z,2038
2016-04-26T15:18:56.968Z,2194
2016-04-26T15:22:15.681Z,2868
2016-04-26T15:25:23.457Z,2120
2016-04-26T15:28:25.090Z,1954
2016-04-26T15:31:37.883Z,1904
2016-04-26T15:34:50.609Z,2136
2016-04-26T15:38:03.289Z,2114
2016-04-26T15:41:21.938Z,2177
2016-04-26T15:44:23.696Z,2934
2016-04-26T15:47:36.051Z,2454
2016-04-26T15:50:48.559Z,2255
2016-04-26T15:53:59.832Z,2012
2016-04-26T15:57:18.543Z,1660
2016-04-26T16:00:20.239Z,1805
2016-04-26T16:03:32.625Z,1400
2016-04-26T16:06:46.320Z,632
2016-04-26T16:09:57.735Z,393
2016-04-26T16:13:15.758Z,960
2016-04-26T16:16:23.344Z,3436
2016-04-26T16:19:24.759Z,6172
2016-04-26T16:22:37.395Z,4596
2016-04-26T16:25:49.887Z,3306
2016-04-26T16:29:02.286Z,2343
2016-04-26T16:32:20.888Z,2141
2016-04-26T16:35:23.692Z,1963
2016-04-26T16:38:34.891Z,1750
2016-04-26T16:41:49.336Z,1638
2016-04-26T16:44:59.563Z,1535
2016-04-26T16:48:17.758Z,1436
2016-04-26T16:51:19.298Z,1348
2016-04-26T16:54:31.463Z,1275
2016-04-26T16:57:43.739Z,1205
2016-04-26T17:00:56.028Z,1120
2016-04-26T17:04:08.473Z,1107
2016-04-26T17:07:20.809Z,1089
2016-04-26T17:10:32.881Z,1048
2016-04-26T17:13:45.276Z,1064
2016-04-26T17:16:55.206Z,959
2016-04-26T17:20:10.104Z,870
2016-04-26T17:23:19.754Z,811
2016-04-26T17:26:32.167Z,769
2016-04-26T17:29:44.662Z,724
2016-04-26T17:32:56.843Z,627
2016-04-26T17:36:15.366Z,560
2016-04-26T17:39:22.999Z,470
2016-04-26T17:42:24.503Z,401
2016-04-26T17:45:36.870Z,280
2016-04-26T17:48:49.258Z,162
2016-04-26T17:52:01.576Z,152
2016-04-26T17:55:19.701Z,150
2016-04-26T17:58:21.055Z,131
2016-04-26T18:01:33.473Z,127
2016-04-26T18:04:42.827Z,157
2016-04-26T18:07:55.007Z,146
2016-04-26T18:11:07.062Z,93
2016-04-26T18:14:19.320Z,70
2016-04-26T18:17:31.484Z,41
2016-04-26T18:20:40.949Z,19
2016-04-26T18:23:53.378Z,14
2016-04-26T18:27:05.636Z,4
2016-04-26T18:30:23.051Z,2
2016-04-26T18:33:24.574Z,2
2016-04-26T18:36:38.617Z,2
2016-04-26T18:39:49.296Z,1
2016-04-26T18:43:00.149Z,1
2016-04-26T18:46:18.204Z,1
2016-04-26T18:49:25.399Z,2
2016-04-26T18:52:26.688Z,1
2016-04-26T18:55:38.931Z,1
2016-04-26T18:58:51.097Z,1
2016-04-26T19:02:03.559Z,3
2016-04-26T19:05:21.973Z,3
2016-04-26T19:08:23.215Z,3
2016-04-26T19:11:35.349Z,3
2016-04-26T19:14:44.232Z,3
2016-04-26T19:17:56.524Z,3
2016-04-26T19:21:09.063Z,2
2016-04-26T19:24:26.352Z,2
2016-04-26T19:27:27.595Z,2
2016-04-26T19:30:39.635Z,2
2016-04-26T19:33:52.099Z,3
2016-04-26T19:37:04.466Z,2
2016-04-26T19:40:22.755Z,5
2016-04-26T19:43:23.982Z,2
2016-04-26T19:46:36.240Z,2
2016-04-26T19:49:48.420Z,2
2016-04-26T19:52:58.353Z,2
2016-04-26T19:56:10.361Z,2
2016-04-26T19:59:21.838Z,2
2016-04-26T20:02:34.064Z,2
2016-04-26T20:05:47.010Z,2
2016-04-26T20:08:58.427Z,2
2016-04-26T20:12:10.716Z,3
2016-04-26T20:15:28.600Z,3
2016-04-26T20:18:29.857Z,2
2016-04-26T20:21:45.241Z,3
2016-04-26T20:24:53.936Z,3
2016-04-26T20:28:06.025Z,2
2016-04-26T20:31:24.658Z,2
2016-04-26T20:34:27.963Z,2
2016-04-26T20:37:37.783Z,2
2016-04-26T20:40:50.027Z,2
2016-04-26T20:44:01.959Z,2
2016-04-26T20:47:19.623Z,2
2016-04-26T20:50:26.819Z,2
2016-04-26T20:53:27.905Z,3
2016-04-26T20:56:40.116Z,2
2016-04-26T20:59:52.468Z,2
2016-04-26T21:03:04.620Z,3
2016-04-26T21:06:22.768Z,2
2016-04-26T21:09:24.355Z,2
2016-04-26T21:12:34.785Z,2
2016-04-26T21:15:47.011Z,2
2016-04-26T21:18:58.941Z,2
2016-04-26T21:22:11.843Z,2
2016-04-26T21:25:27.616Z,2
2016-04-26T21:28:28.656Z,2
2016-04-26T21:31:40.648Z,2
2016-04-26T21:34:50.500Z,2
2016-04-26T21:38:02.820Z,2
2016-04-26T21:41:14.144Z,2
2016-04-26T21:44:26.136Z,2
2016-04-26T21:47:36.144Z,2
2016-04-26T21:50:48.105Z,2
2016-04-26T21:54:00.363Z,2
2016-04-26T21:57:12.624Z,2
2016-04-26T22:00:30.539Z,2
2016-04-26T22:03:31.750Z,2
2016-04-26T22:06:43.976Z,2
2016-04-26T22:09:56.266Z,2
2016-04-26T22:13:08.636Z,1
2016-04-26T22:16:26.613Z,1
2016-04-26T22:19:33.746Z,1
2016-04-26T22:22:34.941Z,1
2016-04-26T22:25:47.090Z,1
2016-04-26T22:28:59.082Z,1
2016-04-26T22:32:11.359Z,1
2016-04-26T22:35:21.492Z,1
2016-04-26T22:38:36.812Z,1
2016-04-26T22:41:40.836Z,1
2016-04-26T22:44:50.016Z,1
2016-04-26T22:48:01.368Z,2
2016-04-26T22:51:13.582Z,2
2016-04-26T22:54:21.965Z,2
2016-04-26T22:57:37.582Z,5
2016-04-26T23:00:38.715Z,5
2016-04-26T23:03:50.942Z,5
2016-04-26T23:07:03.060Z,5
2016-04-26T23:10:14.539Z,5
2016-04-26T23:13:30.281Z,5
2016-04-26T23:16:37.306Z,5
2016-04-26T23:19:38.348Z,5
2016-04-26T23:22:50.216Z,5
2016-04-26T23:26:02.334Z,5
2016-04-26T23:29:14.500Z,5
2016-04-26T23:32:32.499Z,5
2016-04-26T23:35:41.242Z,5
2016-04-26T23:38:40.720Z,5
2016-04-26T23:41:52.681Z,5
2016-04-26T23:45:04.844Z,5
2016-04-26T23:48:14.262Z,5
2016-04-26T23:51:22.739Z,5
2016-04-26T23:54:34.762Z,5
2016-04-26T23:57:46.816Z,5
